createdAt,value
2018-07-11T00:00:53.792Z,5.27
2018-07-11T00:03:32.733Z,5.60
2018-07-11T00:06:01.737Z,5.43
2018-07-11T00:08:30.537Z,5.70
2018-07-11T00:10:59.093Z,5.43
2018-07-11T00:13:27.827Z,6.17
2018-07-11T00:15:56.609Z,6.37
2018-07-11T00:18:25.374Z,6.00
2018-07-11T00:23:47.417Z,6.97
2018-07-11T00:26:16.396Z,6.03
2018-07-11T00:28:45.182Z,5.43
2018-07-11T00:31:13.981Z,5.67
2018-07-11T00:33:42.763Z,5.57
2018-07-11T00:36:11.572Z,6.43
2018-07-11T00:38:40.365Z,7.40
2018-07-11T00:41:09.157Z,6.70
2018-07-11T00:43:37.700Z,6.63
2018-07-11T00:46:06.499Z,6.87
2018-07-11T00:48:35.304Z,6.47
2018-07-11T00:51:04.529Z,6.47
2018-07-11T00:53:33.668Z,6.83
2018-07-11T00:56:02.643Z,7.20
2018-07-11T00:58:33.920Z,7.53
2018-07-11T01:01:07.029Z,8.00
2018-07-11T01:03:41.148Z,8.50
2018-07-11T01:06:10.512Z,7.80
2018-07-11T01:08:40.725Z,7.33
2018-07-11T01:11:15.701Z,8.07
2018-07-11T01:13:45.832Z,7.27
2018-07-11T01:16:15.291Z,8.03
2018-07-11T01:18:57.127Z,8.67
2018-07-11T01:21:26.066Z,7.57
2018-07-11T01:23:54.879Z,8.53
2018-07-11T01:26:25.864Z,8.23
2018-07-11T01:28:54.419Z,7.80
2018-07-11T01:31:23.441Z,7.53
2018-07-11T01:33:52.299Z,7.83
2018-07-11T01:36:21.036Z,6.97
2018-07-11T01:38:49.972Z,7.57
2018-07-11T01:41:18.785Z,7.50
2018-07-11T01:43:47.597Z,7.50
2018-07-11T01:46:16.427Z,7.83
2018-07-11T01:48:45.572Z,8.00
2018-07-11T01:51:14.170Z,7.80
2018-07-11T01:53:42.944Z,7.90
2018-07-11T01:56:11.736Z,6.93
2018-07-11T01:58:41.436Z,7.27
2018-07-11T02:01:10.026Z,6.77
2018-07-11T02:03:38.490Z,6.70
2018-07-11T02:06:06.968Z,7.77
2018-07-11T02:08:35.673Z,8.30
2018-07-11T02:11:04.573Z,7.57
2018-07-11T02:13:33.166Z,7.27
2018-07-11T02:16:01.886Z,7.80
2018-07-11T02:18:30.945Z,6.80
2018-07-11T02:20:59.921Z,6.73
2018-07-11T02:23:33.848Z,6.73
2018-07-11T02:26:02.619Z,7.27
2018-07-11T02:28:31.633Z,6.87
2018-07-11T02:31:00.462Z,7.03
2018-07-11T02:33:29.254Z,6.23
2018-07-11T02:35:58.104Z,6.17
2018-07-11T02:38:26.890Z,6.33
2018-07-11T02:40:55.872Z,5.57
2018-07-11T02:43:24.448Z,6.00
2018-07-11T02:45:53.250Z,6.07
2018-07-11T02:48:21.900Z,5.70
2018-07-11T02:50:50.604Z,6.07
2018-07-11T02:53:20.446Z,5.33
2018-07-11T02:55:50.074Z,6.10
2018-07-11T02:58:18.889Z,5.23
2018-07-11T03:00:48.243Z,5.30
2018-07-11T03:03:17.223Z,5.40
2018-07-11T03:05:45.777Z,6.60
2018-07-11T03:08:15.500Z,5.27
2018-07-11T03:10:44.401Z,5.73
2018-07-11T03:13:13.198Z,4.97
2018-07-11T03:15:42.004Z,5.30
2018-07-11T03:18:10.693Z,5.40
2018-07-11T03:20:39.465Z,5.20
2018-07-11T03:23:08.298Z,5.70
2018-07-11T03:25:37.133Z,4.83
2018-07-11T03:28:05.696Z,5.80
2018-07-11T03:30:34.530Z,5.23
2018-07-11T03:33:03.310Z,5.00
2018-07-11T03:35:32.082Z,5.70
2018-07-11T03:38:00.677Z,5.33
2018-07-11T03:40:29.371Z,4.93
2018-07-11T03:42:57.944Z,4.57
2018-07-11T03:45:26.932Z,5.37
2018-07-11T03:47:55.783Z,5.23
2018-07-11T03:50:24.577Z,4.87
2018-07-11T03:52:53.388Z,4.43
2018-07-11T03:55:21.981Z,5.20
2018-07-11T03:57:50.665Z,5.57
2018-07-11T04:00:19.252Z,5.17
2018-07-11T04:02:47.949Z,5.53
2018-07-11T04:05:16.577Z,4.60
2018-07-11T04:07:45.316Z,5.57
2018-07-11T04:10:13.904Z,5.20
2018-07-11T04:12:42.638Z,5.83
2018-07-11T04:15:11.430Z,5.20
2018-07-11T04:17:40.240Z,4.87
2018-07-11T04:20:09.233Z,4.80
2018-07-11T04:22:38.034Z,4.57
2018-07-11T04:25:06.840Z,4.93
2018-07-11T04:27:35.433Z,4.37
2018-07-11T04:30:10.680Z,5.37
2018-07-11T04:32:39.489Z,5.80
2018-07-11T04:35:08.286Z,4.37
2018-07-11T04:37:37.078Z,5.17
2018-07-11T04:40:06.007Z,4.43
2018-07-11T04:42:34.780Z,4.87
2018-07-11T04:45:03.576Z,4.57
2018-07-11T04:50:00.564Z,4.60
2018-07-11T04:52:29.381Z,4.77
2018-07-11T04:54:58.181Z,4.63
2018-07-11T04:57:26.986Z,5.27
2018-07-11T04:59:55.769Z,4.53
2018-07-11T05:02:24.517Z,5.10
2018-07-11T05:04:53.368Z,4.80
2018-07-11T05:07:21.844Z,5.30
2018-07-11T05:09:50.573Z,4.80
2018-07-11T05:12:19.352Z,5.40
2018-07-11T05:14:48.148Z,5.07
2018-07-11T05:17:16.964Z,5.37
2018-07-11T05:19:45.770Z,5.43
2018-07-11T05:22:14.545Z,5.00
2018-07-11T05:24:43.356Z,5.57
2018-07-11T05:27:12.302Z,5.83
2018-07-11T05:29:41.088Z,5.30
2018-07-11T05:32:09.864Z,5.53
2018-07-11T05:34:38.764Z,5.43
2018-07-11T05:37:07.442Z,5.40
2018-07-11T05:39:36.232Z,5.53
2018-07-11T05:42:04.804Z,5.43
2018-07-11T05:44:33.312Z,5.97
2018-07-11T05:47:04.954Z,5.83
2018-07-11T05:49:34.110Z,6.27
2018-07-11T05:52:03.597Z,6.47
2018-07-11T05:54:33.706Z,5.87
2018-07-11T05:57:02.872Z,6.43
2018-07-11T05:59:31.752Z,6.27
2018-07-11T06:02:00.595Z,6.07
2018-07-11T06:04:29.276Z,7.23
2018-07-11T06:06:58.273Z,6.13
2018-07-11T06:09:27.403Z,6.27
2018-07-11T06:11:56.158Z,5.77
2018-07-11T06:14:25.085Z,6.37
2018-07-11T06:16:53.887Z,7.20
2018-07-11T06:19:22.739Z,7.77
2018-07-11T06:21:51.777Z,7.87
2018-07-11T06:24:20.920Z,7.53
2018-07-11T06:26:49.605Z,7.00
2018-07-11T06:29:18.400Z,7.33
2018-07-11T06:31:47.441Z,6.37
2018-07-11T06:34:16.222Z,6.23
2018-07-11T06:36:45.018Z,5.27
2018-07-11T06:39:13.623Z,6.30
2018-07-11T06:41:42.311Z,5.83
2018-07-11T06:44:11.154Z,5.70
2018-07-11T06:46:40.216Z,5.57
2018-07-11T06:49:09.268Z,5.67
2018-07-11T06:51:37.890Z,6.20
2018-07-11T06:54:06.745Z,5.40
2018-07-11T06:56:35.534Z,5.67
2018-07-11T06:59:04.133Z,5.57
2018-07-11T07:01:32.826Z,5.97
2018-07-11T07:04:01.597Z,6.13
2018-07-11T07:06:30.520Z,5.50
2018-07-11T07:08:59.313Z,5.73
2018-07-11T07:11:28.120Z,6.37
2018-07-11T07:13:56.909Z,5.57
2018-07-11T07:16:25.745Z,5.37
2018-07-11T07:18:54.515Z,5.57
2018-07-11T07:21:23.305Z,4.40
2018-07-11T07:23:52.069Z,5.23
2018-07-11T07:26:20.860Z,5.10
2018-07-11T07:28:49.678Z,5.27
2018-07-11T07:31:18.466Z,5.27
2018-07-11T07:33:47.052Z,5.77
2018-07-11T07:36:15.756Z,5.30
2018-07-11T07:38:44.876Z,4.97
2018-07-11T07:41:13.668Z,5.57
2018-07-11T07:43:43.596Z,5.33
2018-07-11T07:46:12.509Z,5.30
2018-07-11T07:48:41.432Z,5.47
2018-07-11T07:51:10.137Z,5.23
2018-07-11T07:53:38.816Z,5.23
2018-07-11T07:56:07.604Z,5.13
2018-07-11T07:58:36.428Z,4.77
2018-07-11T08:01:05.205Z,5.27
2018-07-11T08:03:34.778Z,6.07
2018-07-11T08:06:03.491Z,5.03
2018-07-11T08:08:32.161Z,4.93
2018-07-11T08:11:00.997Z,4.87
2018-07-11T08:13:29.744Z,5.43
2018-07-11T08:15:58.536Z,4.67
2018-07-11T08:18:27.340Z,5.03
2018-07-11T08:20:56.109Z,4.93
2018-07-11T08:23:40.033Z,4.77
2018-07-11T08:26:14.224Z,4.90
2018-07-11T08:29:54.421Z,4.63
2018-07-11T08:33:36.580Z,4.40
2018-07-11T08:37:25.180Z,4.93
2018-07-11T08:40:04.376Z,4.90
2018-07-11T08:42:51.311Z,4.50
2018-07-11T08:46:30.376Z,4.43
2018-07-11T08:49:10.419Z,4.50
2018-07-11T08:51:54.466Z,5.00
2018-07-11T08:54:28.771Z,5.13
2018-07-11T08:59:15.520Z,4.07
2018-07-11T09:01:58.209Z,4.13
2018-07-11T09:05:36.331Z,3.90
2018-07-11T09:08:23.837Z,4.60
2018-07-11T09:10:58.996Z,4.20
2018-07-11T09:13:38.599Z,4.27
2018-07-11T09:16:54.274Z,4.30
2018-07-11T09:19:38.047Z,3.67
2018-07-11T09:22:18.448Z,4.10
2018-07-11T09:24:49.207Z,4.03
2018-07-11T09:27:18.152Z,4.20
2018-07-11T09:29:47.412Z,4.00
2018-07-11T09:32:16.349Z,4.17
2018-07-11T09:34:45.716Z,4.33
2018-07-11T09:37:14.397Z,4.23
2018-07-11T09:39:43.755Z,4.07
2018-07-11T09:42:12.317Z,4.10
2018-07-11T09:44:41.030Z,3.97
2018-07-11T09:47:15.240Z,3.87
2018-07-11T09:49:44.037Z,3.90
2018-07-11T09:52:13.190Z,4.90
2018-07-11T09:54:42.039Z,4.57
2018-07-11T09:57:10.962Z,4.27
2018-07-11T09:59:39.743Z,3.83
2018-07-11T10:02:08.566Z,3.77
2018-07-11T10:04:37.156Z,3.93
2018-07-11T10:07:06.051Z,3.90
2018-07-11T10:09:34.605Z,5.10
2018-07-11T10:12:03.402Z,4.70
2018-07-11T10:14:31.892Z,4.33
2018-07-11T10:17:00.404Z,4.27
2018-07-11T10:19:29.072Z,3.63
2018-07-11T10:21:57.857Z,5.20
2018-07-11T10:24:26.408Z,4.27
2018-07-11T10:26:55.204Z,4.27
2018-07-11T10:29:23.999Z,4.70
2018-07-11T10:31:52.794Z,4.60
2018-07-11T10:34:21.553Z,4.23
2018-07-11T10:36:50.361Z,4.30
2018-07-11T10:39:19.178Z,4.37
2018-07-11T10:41:47.734Z,4.70
2018-07-11T10:44:16.421Z,4.60
2018-07-11T10:46:45.228Z,4.13
2018-07-11T10:49:13.777Z,4.43
2018-07-11T10:51:43.168Z,4.90
2018-07-11T10:54:11.998Z,4.07
2018-07-11T10:56:40.579Z,4.77
2018-07-11T10:59:09.953Z,5.10
2018-07-11T11:01:38.746Z,4.73
2018-07-11T11:04:07.528Z,4.20
2018-07-11T11:06:36.329Z,5.07
2018-07-11T11:09:05.629Z,4.57
2018-07-11T11:11:34.409Z,4.63
2018-07-11T11:14:03.288Z,4.47
2018-07-11T11:16:32.128Z,4.70
2018-07-11T11:19:00.878Z,4.70
2018-07-11T11:21:29.674Z,4.63
2018-07-11T11:23:58.455Z,3.70
2018-07-11T11:26:27.378Z,4.57
2018-07-11T11:28:55.973Z,4.77
2018-07-11T11:31:24.760Z,4.43
2018-07-11T11:33:53.351Z,4.77
2018-07-11T11:36:22.062Z,4.07
2018-07-11T11:38:51.032Z,4.40
2018-07-11T11:41:19.844Z,4.93
2018-07-11T11:43:48.633Z,4.97
2018-07-11T11:46:17.454Z,4.53
2018-07-11T11:48:46.247Z,5.20
2018-07-11T11:51:15.035Z,4.47
2018-07-11T11:53:43.848Z,4.67
2018-07-11T11:56:12.444Z,4.40
2018-07-11T11:58:41.135Z,4.97
2018-07-11T12:01:09.946Z,4.33
2018-07-11T12:03:38.697Z,4.80
2018-07-11T12:06:07.235Z,4.80
2018-07-11T12:08:36.152Z,4.37
2018-07-11T12:11:04.941Z,4.57
2018-07-11T12:13:33.734Z,4.73
2018-07-11T12:16:04.760Z,4.43
2018-07-11T12:18:33.584Z,5.20
2018-07-11T12:21:02.204Z,4.60
2018-07-11T12:23:30.898Z,5.17
2018-07-11T12:26:02.923Z,5.27
2018-07-11T12:28:31.476Z,5.10
2018-07-11T12:31:00.167Z,5.07
2018-07-11T12:33:29.192Z,5.47
2018-07-11T12:35:58.264Z,4.80
2018-07-11T12:38:26.924Z,5.57
2018-07-11T12:40:55.612Z,6.03
2018-07-11T12:43:24.849Z,5.10
2018-07-11T12:45:53.392Z,5.67
2018-07-11T12:48:27.612Z,5.23
2018-07-11T12:50:56.432Z,5.10
2018-07-11T12:53:25.213Z,5.77
2018-07-11T12:55:54.005Z,5.53
2018-07-11T12:58:22.842Z,5.50
2018-07-11T13:00:51.608Z,5.40
2018-07-11T13:03:20.401Z,5.00
2018-07-11T13:05:49.173Z,5.60
2018-07-11T13:08:18.522Z,6.07
2018-07-11T13:10:47.396Z,6.27
2018-07-11T13:13:16.246Z,5.07
2018-07-11T13:15:44.929Z,5.73
2018-07-11T13:18:13.793Z,5.47
2018-07-11T13:20:42.568Z,5.40
2018-07-11T13:23:11.351Z,5.87
2018-07-11T13:25:40.179Z,5.83
2018-07-11T13:28:08.921Z,6.43
2018-07-11T13:30:37.681Z,5.53
2018-07-11T13:33:06.510Z,5.60
2018-07-11T13:35:35.673Z,6.50
2018-07-11T13:38:05.123Z,5.80
2018-07-11T13:40:34.361Z,5.93
2018-07-11T13:43:03.133Z,5.57
2018-07-11T13:45:31.606Z,5.50
2018-07-11T13:48:01.318Z,5.17
2018-07-11T13:50:31.547Z,4.73
2018-07-11T13:53:00.991Z,5.40
2018-07-11T13:55:30.005Z,5.00
2018-07-11T13:58:00.031Z,4.53
2018-07-11T14:00:29.154Z,4.80
2018-07-11T14:02:57.934Z,4.90
2018-07-11T14:05:26.791Z,5.10
2018-07-11T14:07:55.853Z,4.93
2018-07-11T14:10:24.821Z,5.40
2018-07-11T14:12:53.627Z,5.50
2018-07-11T14:15:22.224Z,5.17
2018-07-11T14:17:50.964Z,5.87
2018-07-11T14:20:19.784Z,5.80
2018-07-11T14:22:48.698Z,9.23
2018-07-11T14:25:18.328Z,7.70
2018-07-11T14:27:48.383Z,6.93
2018-07-11T14:30:17.270Z,8.33
2018-07-11T14:32:48.641Z,6.33
2018-07-11T14:35:17.950Z,5.53
2018-07-11T14:37:47.691Z,5.63
2018-07-11T14:40:16.537Z,6.77
2018-07-11T14:42:45.757Z,6.40
2018-07-11T14:45:14.965Z,5.43
2018-07-11T14:47:49.157Z,5.20
2018-07-11T14:50:18.276Z,5.50
2018-07-11T14:52:47.260Z,5.43
2018-07-11T14:55:16.038Z,4.73
2018-07-11T14:57:44.636Z,5.10
2018-07-11T15:00:13.325Z,5.23
2018-07-11T15:02:42.155Z,4.67
2018-07-11T15:05:11.001Z,5.23
2018-07-11T15:07:39.765Z,4.37
2018-07-11T15:10:08.557Z,4.27
2018-07-11T15:12:37.353Z,4.70
2018-07-11T15:15:05.933Z,5.10
2018-07-11T15:17:34.646Z,5.13
2018-07-11T15:20:03.478Z,5.37
2018-07-11T15:22:32.250Z,5.50
2018-07-11T15:25:01.049Z,5.57
2018-07-11T15:27:30.064Z,5.27
2018-07-11T15:29:59.011Z,5.50
2018-07-11T15:32:27.926Z,5.73
2018-07-11T15:34:56.648Z,5.87
2018-07-11T15:37:25.781Z,5.17
2018-07-11T15:39:55.065Z,5.10
2018-07-11T15:42:23.832Z,6.17
2018-07-11T15:44:53.653Z,5.63
2018-07-11T15:47:23.042Z,5.50
2018-07-11T15:49:53.089Z,5.27
2018-07-11T15:52:24.292Z,5.13
2018-07-11T15:54:57.197Z,5.63
2018-07-11T15:57:31.567Z,4.80
2018-07-11T16:00:06.970Z,5.17
2018-07-11T16:02:40.552Z,5.40
2018-07-11T16:05:09.993Z,5.33
2018-07-11T16:07:43.459Z,6.13
2018-07-11T16:10:12.268Z,5.50
2018-07-11T16:12:41.304Z,5.73
2018-07-11T16:15:10.104Z,4.90
2018-07-11T16:17:38.856Z,5.57
2018-07-11T16:20:07.818Z,5.73
2018-07-11T16:22:36.682Z,5.93
2018-07-11T16:25:05.705Z,6.50
2018-07-11T16:27:34.471Z,5.93
2018-07-11T16:30:03.540Z,4.93
2018-07-11T16:32:32.324Z,5.80
2018-07-11T16:35:01.111Z,5.67
2018-07-11T16:37:29.868Z,5.80
2018-07-11T16:39:58.656Z,5.77
2018-07-11T16:42:27.504Z,5.23
2018-07-11T16:44:56.275Z,5.70
2018-07-11T16:47:25.301Z,5.27
2018-07-11T16:49:54.173Z,5.33
2018-07-11T16:52:23.561Z,5.60
2018-07-11T16:54:52.440Z,5.60
2018-07-11T16:57:23.145Z,5.40
2018-07-11T16:59:58.245Z,5.30
2018-07-11T17:02:27.186Z,5.70
2018-07-11T17:05:03.165Z,5.97
2018-07-11T17:07:34.433Z,5.13
2018-07-11T17:10:04.814Z,5.67
2018-07-11T17:12:33.856Z,5.50
2018-07-11T17:15:02.679Z,5.53
2018-07-11T17:17:33.465Z,5.60
2018-07-11T17:20:06.862Z,6.60
2018-07-11T17:23:08.177Z,5.97
2018-07-11T17:25:41.393Z,5.73
2018-07-11T17:28:10.301Z,6.43
2018-07-11T17:30:41.858Z,6.37
2018-07-11T17:33:11.587Z,6.40
2018-07-11T17:35:47.564Z,6.50
2018-07-11T17:38:16.377Z,6.17
2018-07-11T17:40:46.797Z,6.40
2018-07-11T17:43:17.431Z,6.07
2018-07-11T17:45:46.624Z,6.23
2018-07-11T17:48:20.218Z,6.67
2018-07-11T17:50:49.049Z,6.90
2018-07-11T17:53:20.458Z,6.63
2018-07-11T17:56:07.973Z,6.30
2018-07-11T17:58:57.704Z,6.27
2018-07-11T18:01:40.772Z,7.07
2018-07-11T18:04:20.988Z,7.30
2018-07-11T18:07:21.972Z,6.73
2018-07-11T18:09:57.274Z,6.63
2018-07-11T18:12:31.538Z,7.20
2018-07-11T18:16:05.126Z,6.87
2018-07-11T18:18:39.755Z,6.70
2018-07-11T18:21:29.590Z,6.23
2018-07-11T18:26:27.829Z,6.67
2018-07-11T18:29:35.709Z,7.30
2018-07-11T18:35:26.940Z,7.17
2018-07-11T18:38:00.601Z,6.37
2018-07-11T18:40:30.873Z,7.80
2018-07-11T18:45:08.682Z,6.77
2018-07-11T18:47:47.305Z,6.40
2018-07-11T18:50:26.263Z,7.00
2018-07-11T18:53:01.031Z,7.30
2018-07-11T18:55:37.298Z,6.73
2018-07-11T19:00:21.143Z,6.67
2018-07-11T19:03:06.677Z,6.80
2018-07-11T19:05:46.256Z,6.63
2018-07-11T19:08:22.021Z,7.43
2018-07-11T19:11:25.091Z,7.53
2018-07-11T19:13:55.117Z,6.67
2018-07-11T19:16:37.820Z,6.53
2018-07-11T19:19:09.127Z,7.10
2018-07-11T19:22:17.051Z,7.13
2018-07-11T19:24:53.490Z,6.20
2018-07-11T19:27:26.957Z,7.10
2018-07-11T19:30:12.613Z,7.00
2018-07-11T19:32:54.253Z,7.37
2018-07-11T19:35:33.923Z,6.90
2018-07-11T19:38:06.018Z,7.67
2018-07-11T19:40:40.715Z,7.27
2018-07-11T19:45:25.748Z,7.17
2018-07-11T19:48:02.849Z,6.63
2018-07-11T19:50:49.492Z,7.00
2018-07-11T19:53:34.421Z,7.27
2018-07-11T19:56:21.183Z,7.30
2018-07-11T19:58:50.145Z,7.40
2018-07-11T20:01:19.002Z,7.43
2018-07-11T20:03:47.820Z,6.93
2018-07-11T20:06:17.090Z,7.47
2018-07-11T20:08:45.944Z,7.20
2018-07-11T20:11:16.361Z,7.30
2018-07-11T20:13:45.149Z,7.50
2018-07-11T20:16:14.104Z,7.53
2018-07-11T20:18:42.832Z,7.60
2018-07-11T20:21:11.664Z,7.63
2018-07-11T20:23:40.477Z,7.77
2018-07-11T20:26:09.253Z,7.73
2018-07-11T20:28:38.035Z,7.63
2018-07-11T20:31:06.834Z,7.53
2018-07-11T20:33:35.633Z,6.80
2018-07-11T20:36:04.686Z,6.83
2018-07-11T20:38:33.469Z,7.20
2018-07-11T20:41:02.281Z,7.10
2018-07-11T20:43:31.076Z,7.30
2018-07-11T20:46:00.262Z,7.13
2018-07-11T20:48:29.222Z,7.03
2018-07-11T20:50:58.028Z,6.30
2018-07-11T20:53:26.833Z,7.43
2018-07-11T20:55:55.953Z,7.30
2018-07-11T20:58:36.590Z,6.77
2018-07-11T21:01:16.865Z,6.83
2018-07-11T21:03:53.850Z,6.63
2018-07-11T21:07:36.072Z,7.07
2018-07-11T21:10:21.641Z,6.80
2018-07-11T21:13:02.046Z,6.97
2018-07-11T21:15:44.818Z,6.77
2018-07-11T21:18:25.814Z,6.90
2018-07-11T21:20:54.584Z,6.70
2018-07-11T21:23:23.380Z,8.20
2018-07-11T21:25:51.951Z,8.40
2018-07-11T21:28:20.460Z,7.47
2018-07-11T21:30:49.356Z,6.97
2018-07-11T21:33:18.165Z,6.63
2018-07-11T21:35:46.917Z,6.77
2018-07-11T21:38:15.484Z,7.30
2018-07-11T21:40:43.959Z,7.90
2018-07-11T21:43:12.710Z,7.20
2018-07-11T21:45:41.509Z,6.97
2018-07-11T21:48:10.292Z,7.90
2018-07-11T21:50:39.090Z,7.07
2018-07-11T21:53:07.889Z,7.23
2018-07-11T21:55:36.661Z,7.13
2018-07-11T21:58:05.505Z,7.67
2018-07-11T22:00:36.897Z,7.13
2018-07-11T22:03:06.686Z,7.50
2018-07-11T22:05:35.654Z,7.53
2018-07-11T22:08:06.037Z,6.83
2018-07-11T22:10:35.487Z,7.27
2018-07-11T22:13:04.528Z,6.87
2018-07-11T22:15:33.300Z,6.63
2018-07-11T22:18:13.515Z,6.83
2018-07-11T22:20:41.357Z,6.50
2018-07-11T22:23:09.173Z,6.67
2018-07-11T22:25:37.269Z,7.17
2018-07-11T22:28:05.081Z,6.63
2018-07-11T22:30:38.026Z,6.00
2018-07-11T22:33:05.836Z,6.20
2018-07-11T22:35:33.834Z,6.03
2018-07-11T22:38:01.675Z,6.63
2018-07-11T22:40:29.514Z,6.53
2018-07-11T22:42:57.339Z,6.37
2018-07-11T22:45:25.162Z,5.73
2018-07-11T22:47:52.993Z,6.33
2018-07-11T22:50:20.812Z,6.57
2018-07-11T22:52:48.897Z,6.43
2018-07-11T22:55:16.661Z,6.57
2018-07-11T22:57:44.477Z,6.63
2018-07-11T23:00:12.301Z,6.47
2018-07-11T23:02:40.186Z,6.27
2018-07-11T23:05:08.001Z,7.40
2018-07-11T23:07:35.864Z,6.60
2018-07-11T23:10:03.714Z,6.80
2018-07-11T23:12:31.565Z,6.87
2018-07-11T23:14:59.397Z,6.97
2018-07-11T23:17:27.231Z,6.87
2018-07-11T23:19:55.065Z,7.10
2018-07-11T23:22:22.880Z,6.77
2018-07-11T23:24:50.713Z,7.43
2018-07-11T23:27:18.533Z,7.27
2018-07-11T23:29:46.381Z,7.50
2018-07-11T23:32:14.469Z,7.10
2018-07-11T23:34:42.233Z,7.53
2018-07-11T23:37:10.069Z,7.10
2018-07-11T23:39:38.006Z,7.70
2018-07-11T23:42:05.822Z,7.20
2018-07-11T23:44:34.006Z,7.83
2018-07-11T23:47:01.737Z,7.70
2018-07-11T23:49:29.581Z,8.33
2018-07-11T23:51:57.408Z,7.67
2018-07-11T23:54:25.244Z,8.00
2018-07-11T23:56:53.833Z,7.73
2018-07-11T23:59:21.945Z,8.00
